EGJA/ACI METAR and TAF weather

Enter ICAO airport designator
Station Type Date Time Source
EGJA METAR 2020/12/05 18:20 UTC NOAA

EGJA 051820Z 06012KT 9999 VCSH SCT014 07/05 Q0990 RESHRA


Station Type Date Time Source
EGJA Decoded METAR 2020/12/05 18:20 UTC NOAA

Alderney / Channel Island, United Kingdom (EGJA) 49-43N 002-12W
Dec 05, 2020 - 01:20 PM EST / 2020.12.05 1820 UTC
Wind: from the ENE (060 degrees) at 14 MPH (12 KT):0
Visibility: greater than 7 mile(s):0
Sky conditions: partly cloudy
Weather: showers in the vicinity
Temperature: 44 F (7 C)
Dew Point: 41 F (5 C)
Relative Humidity: 87%
Pressure (altimeter): 29.23 in. Hg (0990 hPa)
ob: EGJA 051820Z 06012KT 9999 VCSH SCT014 07/05 Q0990 RESHRA
cycle: 18

Station Type Date Time Source
EGJA TAF UTC NOAA

Error!

Example: see airport list